sensor_id;sensor_type;location;lat;lon;timestamp;P1;durP1;ratioP1;P2;durP2;ratioP2
16460;SDS011;8341;42.048;24.650;2023-12-07T00:01:46;7.95;;;4.70;;
16460;SDS011;8341;42.048;24.650;2023-12-07T00:04:13;7.47;;;5.05;;
16460;SDS011;8341;42.048;24.650;2023-12-07T00:06:40;5.70;;;4.18;;
16460;SDS011;8341;42.048;24.650;2023-12-07T00:09:07;9.30;;;5.32;;
16460;SDS011;8341;42.048;24.650;2023-12-07T00:11:34;8.13;;;5.90;;
16460;SDS011;8341;42.048;24.650;2023-12-07T00:14:01;8.82;;;5.50;;
16460;SDS011;8341;42.048;24.650;2023-12-07T00:16:28;8.05;;;5.28;;
16460;SDS011;8341;42.048;24.650;2023-12-07T00:18:57;9.45;;;5.93;;
16460;SDS011;8341;42.048;24.650;2023-12-07T00:21:23;10.33;;;6.03;;
16460;SDS011;8341;42.048;24.650;2023-12-07T00:23:50;8.77;;;5.40;;
16460;SDS011;8341;42.048;24.650;2023-12-07T00:26:18;6.57;;;4.07;;
16460;SDS011;8341;42.048;24.650;2023-12-07T00:28:45;8.13;;;4.80;;
16460;SDS011;8341;42.048;24.650;2023-12-07T00:31:12;6.53;;;4.47;;
16460;SDS011;8341;42.048;24.650;2023-12-07T00:33:39;5.73;;;4.27;;
16460;SDS011;8341;42.048;24.650;2023-12-07T00:36:08;6.90;;;4.40;;
16460;SDS011;8341;42.048;24.650;2023-12-07T00:38:35;5.50;;;3.97;;
16460;SDS011;8341;42.048;24.650;2023-12-07T00:41:02;5.30;;;3.80;;
16460;SDS011;8341;42.048;24.650;2023-12-07T00:43:30;6.63;;;3.67;;
16460;SDS011;8341;42.048;24.650;2023-12-07T00:45:57;4.97;;;3.53;;
16460;SDS011;8341;42.048;24.650;2023-12-07T00:48:24;4.20;;;3.60;;
16460;SDS011;8341;42.048;24.650;2023-12-07T00:50:51;6.80;;;4.87;;
16460;SDS011;8341;42.048;24.650;2023-12-07T00:53:19;4.17;;;3.40;;
16460;SDS011;8341;42.048;24.650;2023-12-07T00:55:46;6.10;;;3.67;;
16460;SDS011;8341;42.048;24.650;2023-12-07T00:58:13;5.37;;;2.90;;
16460;SDS011;8341;42.048;24.650;2023-12-07T01:00:40;4.60;;;2.80;;
16460;SDS011;8341;42.048;24.650;2023-12-07T01:03:07;4.77;;;2.90;;
16460;SDS011;8341;42.048;24.650;2023-12-07T01:05:34;5.83;;;2.87;;
16460;SDS011;8341;42.048;24.650;2023-12-07T01:08:01;6.00;;;3.13;;
16460;SDS011;8341;42.048;24.650;2023-12-07T01:10:29;3.65;;;2.88;;
16460;SDS011;8341;42.048;24.650;2023-12-07T01:12:57;4.93;;;3.20;;
16460;SDS011;8341;42.048;24.650;2023-12-07T01:15:24;3.55;;;2.53;;
16460;SDS011;8341;42.048;24.650;2023-12-07T01:17:51;4.73;;;3.33;;
16460;SDS011;8341;42.048;24.650;2023-12-07T01:20:18;3.90;;;3.07;;
16460;SDS011;8341;42.048;24.650;2023-12-07T01:22:45;3.73;;;2.93;;
16460;SDS011;8341;42.048;24.650;2023-12-07T01:25:12;3.87;;;2.60;;
16460;SDS011;8341;42.048;24.650;2023-12-07T01:27:46;2.40;;;2.20;;
16460;SDS011;8341;42.048;24.650;2023-12-07T01:30:13;3.70;;;2.75;;
16460;SDS011;8341;42.048;24.650;2023-12-07T01:32:41;2.83;;;2.45;;
16460;SDS011;8341;42.048;24.650;2023-12-07T01:35:08;2.83;;;2.20;;
16460;SDS011;8341;42.048;24.650;2023-12-07T01:37:35;4.45;;;2.70;;
16460;SDS011;8341;42.048;24.650;2023-12-07T01:40:03;5.53;;;3.53;;
16460;SDS011;8341;42.048;24.650;2023-12-07T01:42:35;3.57;;;2.57;;
16460;SDS011;8341;42.048;24.650;2023-12-07T01:45:04;3.47;;;2.00;;
16460;SDS011;8341;42.048;24.650;2023-12-07T01:47:31;4.60;;;2.72;;
16460;SDS011;8341;42.048;24.650;2023-12-07T01:50:01;17.43;;;8.30;;
16460;SDS011;8341;42.048;24.650;2023-12-07T01:52:30;5.10;;;3.08;;
16460;SDS011;8341;42.048;24.650;2023-12-07T01:54:58;4.68;;;2.70;;
16460;SDS011;8341;42.048;24.650;2023-12-07T01:57:25;5.88;;;4.03;;
16460;SDS011;8341;42.048;24.650;2023-12-07T01:59:53;5.85;;;4.00;;
16460;SDS011;8341;42.048;24.650;2023-12-07T02:02:22;5.75;;;3.30;;
16460;SDS011;8341;42.048;24.650;2023-12-07T02:04:49;4.63;;;3.23;;
16460;SDS011;8341;42.048;24.650;2023-12-07T02:07:17;2.85;;;2.35;;
16460;SDS011;8341;42.048;24.650;2023-12-07T02:09:44;4.13;;;2.75;;
16460;SDS011;8341;42.048;24.650;2023-12-07T02:12:12;4.93;;;2.95;;
16460;SDS011;8341;42.048;24.650;2023-12-07T02:14:39;2.85;;;2.15;;
16460;SDS011;8341;42.048;24.650;2023-12-07T02:17:08;3.03;;;2.70;;
16460;SDS011;8341;42.048;24.650;2023-12-07T02:19:54;5.13;;;2.55;;
16460;SDS011;8341;42.048;24.650;2023-12-07T02:22:27;3.13;;;2.20;;
16460;SDS011;8341;42.048;24.650;2023-12-07T02:25:07;2.85;;;1.63;;
16460;SDS011;8341;42.048;24.650;2023-12-07T02:27:37;2.40;;;2.20;;
16460;SDS011;8341;42.048;24.650;2023-12-07T02:30:06;2.95;;;1.90;;
16460;SDS011;8341;42.048;24.650;2023-12-07T02:32:34;2.95;;;2.00;;
16460;SDS011;8341;42.048;24.650;2023-12-07T02:35:02;2.40;;;1.90;;
16460;SDS011;8341;42.048;24.650;2023-12-07T02:37:32;2.72;;;2.20;;
16460;SDS011;8341;42.048;24.650;2023-12-07T02:40:03;2.35;;;1.80;;
16460;SDS011;8341;42.048;24.650;2023-12-07T02:42:35;2.97;;;1.77;;
16460;SDS011;8341;42.048;24.650;2023-12-07T02:45:06;2.30;;;1.73;;
16460;SDS011;8341;42.048;24.650;2023-12-07T02:47:34;2.47;;;2.28;;
16460;SDS011;8341;42.048;24.650;2023-12-07T02:50:01;3.03;;;2.30;;
16460;SDS011;8341;42.048;24.650;2023-12-07T02:52:29;4.68;;;2.42;;
16460;SDS011;8341;42.048;24.650;2023-12-07T02:54:56;3.60;;;2.40;;
16460;SDS011;8341;42.048;24.650;2023-12-07T02:57:23;4.93;;;2.20;;
16460;SDS011;8341;42.048;24.650;2023-12-07T02:59:51;3.72;;;2.65;;
16460;SDS011;8341;42.048;24.650;2023-12-07T03:02:18;5.85;;;3.20;;
16460;SDS011;8341;42.048;24.650;2023-12-07T03:04:45;3.80;;;2.70;;
16460;SDS011;8341;42.048;24.650;2023-12-07T03:07:12;3.78;;;2.60;;
16460;SDS011;8341;42.048;24.650;2023-12-07T03:09:39;4.00;;;2.88;;
16460;SDS011;8341;42.048;24.650;2023-12-07T03:12:06;4.90;;;2.03;;
16460;SDS011;8341;42.048;24.650;2023-12-07T03:14:33;3.97;;;2.85;;
16460;SDS011;8341;42.048;24.650;2023-12-07T03:17:02;3.25;;;2.55;;
16460;SDS011;8341;42.048;24.650;2023-12-07T03:19:29;4.72;;;2.05;;
16460;SDS011;8341;42.048;24.650;2023-12-07T03:21:56;3.13;;;2.33;;
16460;SDS011;8341;42.048;24.650;2023-12-07T03:24:23;3.42;;;2.33;;
16460;SDS011;8341;42.048;24.650;2023-12-07T03:26:50;2.20;;;1.75;;
16460;SDS011;8341;42.048;24.650;2023-12-07T03:29:17;9.75;;;5.07;;
16460;SDS011;8341;42.048;24.650;2023-12-07T03:31:44;4.05;;;2.88;;
16460;SDS011;8341;42.048;24.650;2023-12-07T03:34:13;4.15;;;2.75;;
16460;SDS011;8341;42.048;24.650;2023-12-07T03:36:41;2.40;;;2.15;;
16460;SDS011;8341;42.048;24.650;2023-12-07T03:39:07;3.88;;;2.45;;
16460;SDS011;8341;42.048;24.650;2023-12-07T03:41:35;2.95;;;2.22;;
16460;SDS011;8341;42.048;24.650;2023-12-07T03:44:02;3.80;;;2.50;;
16460;SDS011;8341;42.048;24.650;2023-12-07T03:46:29;2.67;;;1.92;;
16460;SDS011;8341;42.048;24.650;2023-12-07T03:48:56;4.13;;;1.88;;
16460;SDS011;8341;42.048;24.650;2023-12-07T03:51:24;3.15;;;2.47;;
16460;SDS011;8341;42.048;24.650;2023-12-07T03:53:51;2.17;;;1.90;;
16460;SDS011;8341;42.048;24.650;2023-12-07T03:56:24;2.28;;;2.05;;
16460;SDS011;8341;42.048;24.650;2023-12-07T03:58:51;2.67;;;2.10;;
16460;SDS011;8341;42.048;24.650;2023-12-07T04:01:21;2.88;;;2.00;;
16460;SDS011;8341;42.048;24.650;2023-12-07T04:03:49;2.53;;;2.00;;
16460;SDS011;8341;42.048;24.650;2023-12-07T04:06:16;3.65;;;2.10;;
16460;SDS011;8341;42.048;24.650;2023-12-07T04:08:47;3.67;;;2.60;;
16460;SDS011;8341;42.048;24.650;2023-12-07T04:11:14;4.93;;;2.40;;
16460;SDS011;8341;42.048;24.650;2023-12-07T04:13:41;5.03;;;2.40;;
16460;SDS011;8341;42.048;24.650;2023-12-07T04:16:09;2.95;;;2.50;;
16460;SDS011;8341;42.048;24.650;2023-12-07T04:18:36;4.15;;;2.40;;
16460;SDS011;8341;42.048;24.650;2023-12-07T04:21:04;5.63;;;3.70;;
16460;SDS011;8341;42.048;24.650;2023-12-07T04:23:31;4.07;;;2.50;;
16460;SDS011;8341;42.048;24.650;2023-12-07T04:26:00;5.22;;;3.08;;
16460;SDS011;8341;42.048;24.650;2023-12-07T04:28:27;5.43;;;3.22;;
16460;SDS011;8341;42.048;24.650;2023-12-07T04:30:54;2.55;;;2.08;;
16460;SDS011;8341;42.048;24.650;2023-12-07T04:33:21;4.10;;;2.30;;
16460;SDS011;8341;42.048;24.650;2023-12-07T04:35:48;5.68;;;3.58;;
16460;SDS011;8341;42.048;24.650;2023-12-07T04:38:15;11.05;;;7.38;;
16460;SDS011;8341;42.048;24.650;2023-12-07T04:40:42;9.93;;;8.07;;
16460;SDS011;8341;42.048;24.650;2023-12-07T04:43:11;6.18;;;4.38;;
16460;SDS011;8341;42.048;24.650;2023-12-07T04:45:37;3.50;;;2.60;;
16460;SDS011;8341;42.048;24.650;2023-12-07T04:48:05;3.95;;;2.90;;
16460;SDS011;8341;42.048;24.650;2023-12-07T04:50:32;4.17;;;3.07;;
16460;SDS011;8341;42.048;24.650;2023-12-07T04:52:58;4.57;;;3.00;;
16460;SDS011;8341;42.048;24.650;2023-12-07T04:55:25;3.90;;;2.90;;
16460;SDS011;8341;42.048;24.650;2023-12-07T04:57:52;3.70;;;2.95;;
16460;SDS011;8341;42.048;24.650;2023-12-07T05:00:21;5.28;;;3.53;;
16460;SDS011;8341;42.048;24.650;2023-12-07T05:02:48;7.53;;;4.78;;
16460;SDS011;8341;42.048;24.650;2023-12-07T05:05:15;5.53;;;3.72;;
16460;SDS011;8341;42.048;24.650;2023-12-07T05:07:42;6.10;;;3.72;;
16460;SDS011;8341;42.048;24.650;2023-12-07T05:10:09;10.43;;;6.63;;
16460;SDS011;8341;42.048;24.650;2023-12-07T05:12:36;10.60;;;5.72;;
16460;SDS011;8341;42.048;24.650;2023-12-07T05:15:04;6.82;;;4.28;;
16460;SDS011;8341;42.048;24.650;2023-12-07T05:17:33;6.40;;;4.07;;
16460;SDS011;8341;42.048;24.650;2023-12-07T05:20:00;7.75;;;5.57;;
16460;SDS011;8341;42.048;24.650;2023-12-07T05:22:29;5.53;;;4.72;;
16460;SDS011;8341;42.048;24.650;2023-12-07T05:24:56;7.20;;;5.03;;
16460;SDS011;8341;42.048;24.650;2023-12-07T05:27:23;5.82;;;3.38;;
16460;SDS011;8341;42.048;24.650;2023-12-07T05:29:50;3.67;;;3.28;;
16460;SDS011;8341;42.048;24.650;2023-12-07T05:32:17;6.88;;;3.97;;
16460;SDS011;8341;42.048;24.650;2023-12-07T05:34:45;6.05;;;3.60;;
16460;SDS011;8341;42.048;24.650;2023-12-07T05:37:12;5.22;;;3.38;;
16460;SDS011;8341;42.048;24.650;2023-12-07T05:39:39;5.57;;;3.58;;
16460;SDS011;8341;42.048;24.650;2023-12-07T05:42:06;5.73;;;4.27;;
16460;SDS011;8341;42.048;24.650;2023-12-07T05:44:33;5.40;;;3.60;;
16460;SDS011;8341;42.048;24.650;2023-12-07T05:47:00;6.72;;;4.00;;
16460;SDS011;8341;42.048;24.650;2023-12-07T05:49:27;6.75;;;4.13;;
16460;SDS011;8341;42.048;24.650;2023-12-07T05:51:56;7.03;;;4.15;;
16460;SDS011;8341;42.048;24.650;2023-12-07T05:54:23;4.47;;;3.50;;
16460;SDS011;8341;42.048;24.650;2023-12-07T05:56:50;5.20;;;3.30;;
16460;SDS011;8341;42.048;24.650;2023-12-07T05:59:17;4.50;;;3.15;;
16460;SDS011;8341;42.048;24.650;2023-12-07T06:01:44;4.63;;;3.47;;
16460;SDS011;8341;42.048;24.650;2023-12-07T06:04:11;4.63;;;3.35;;
16460;SDS011;8341;42.048;24.650;2023-12-07T06:06:38;5.18;;;3.70;;
16460;SDS011;8341;42.048;24.650;2023-12-07T06:09:06;4.75;;;3.33;;
16460;SDS011;8341;42.048;24.650;2023-12-07T06:11:33;4.43;;;3.30;;
16460;SDS011;8341;42.048;24.650;2023-12-07T06:14:00;6.05;;;4.07;;
16460;SDS011;8341;42.048;24.650;2023-12-07T06:16:28;4.90;;;3.58;;
16460;SDS011;8341;42.048;24.650;2023-12-07T06:18:55;7.25;;;4.45;;
16460;SDS011;8341;42.048;24.650;2023-12-07T06:21:22;4.95;;;3.65;;
16460;SDS011;8341;42.048;24.650;2023-12-07T06:23:50;6.22;;;4.13;;
16460;SDS011;8341;42.048;24.650;2023-12-07T06:26:19;10.35;;;7.40;;
16460;SDS011;8341;42.048;24.650;2023-12-07T06:28:46;8.82;;;6.15;;
16460;SDS011;8341;42.048;24.650;2023-12-07T06:31:13;5.47;;;4.50;;
16460;SDS011;8341;42.048;24.650;2023-12-07T06:33:45;3.53;;;2.90;;
16460;SDS011;8341;42.048;24.650;2023-12-07T06:36:17;3.47;;;2.30;;
16460;SDS011;8341;42.048;24.650;2023-12-07T06:38:45;2.50;;;2.20;;
16460;SDS011;8341;42.048;24.650;2023-12-07T06:41:12;3.07;;;2.20;;
16460;SDS011;8341;42.048;24.650;2023-12-07T06:43:40;2.70;;;2.15;;
16460;SDS011;8341;42.048;24.650;2023-12-07T06:46:09;2.80;;;2.35;;
16460;SDS011;8341;42.048;24.650;2023-12-07T06:48:36;3.92;;;3.50;;
16460;SDS011;8341;42.048;24.650;2023-12-07T06:51:03;4.35;;;3.45;;
16460;SDS011;8341;42.048;24.650;2023-12-07T06:53:30;4.20;;;3.53;;
16460;SDS011;8341;42.048;24.650;2023-12-07T06:55:58;4.30;;;3.17;;
16460;SDS011;8341;42.048;24.650;2023-12-07T06:58:25;3.97;;;3.35;;
16460;SDS011;8341;42.048;24.650;2023-12-07T07:00:53;5.90;;;4.28;;
16460;SDS011;8341;42.048;24.650;2023-12-07T07:03:20;4.30;;;3.60;;
16460;SDS011;8341;42.048;24.650;2023-12-07T07:05:47;8.25;;;5.07;;
16460;SDS011;8341;42.048;24.650;2023-12-07T07:08:14;8.18;;;5.10;;
16460;SDS011;8341;42.048;24.650;2023-12-07T07:10:41;7.63;;;5.05;;
16460;SDS011;8341;42.048;24.650;2023-12-07T07:13:08;5.90;;;4.90;;
16460;SDS011;8341;42.048;24.650;2023-12-07T07:15:35;19.83;;;10.95;;
16460;SDS011;8341;42.048;24.650;2023-12-07T07:18:03;23.38;;;13.80;;
16460;SDS011;8341;42.048;24.650;2023-12-07T07:20:31;45.05;;;22.88;;
16460;SDS011;8341;42.048;24.650;2023-12-07T07:22:58;54.40;;;28.02;;
16460;SDS011;8341;42.048;24.650;2023-12-07T07:25:25;17.30;;;11.27;;
16460;SDS011;8341;42.048;24.650;2023-12-07T07:27:52;18.65;;;12.32;;
16460;SDS011;8341;42.048;24.650;2023-12-07T07:30:19;8.32;;;6.82;;
16460;SDS011;8341;42.048;24.650;2023-12-07T07:32:47;9.30;;;6.15;;
16460;SDS011;8341;42.048;24.650;2023-12-07T07:35:15;16.63;;;10.60;;
16460;SDS011;8341;42.048;24.650;2023-12-07T07:37:42;28.05;;;18.20;;
16460;SDS011;8341;42.048;24.650;2023-12-07T07:40:10;21.90;;;13.15;;
16460;SDS011;8341;42.048;24.650;2023-12-07T07:42:37;19.45;;;12.52;;
16460;SDS011;8341;42.048;24.650;2023-12-07T07:45:05;30.08;;;18.48;;
16460;SDS011;8341;42.048;24.650;2023-12-07T07:47:33;8.65;;;5.57;;
16460;SDS011;8341;42.048;24.650;2023-12-07T07:50:00;9.23;;;6.93;;
16460;SDS011;8341;42.048;24.650;2023-12-07T07:52:32;11.48;;;5.90;;
16460;SDS011;8341;42.048;24.650;2023-12-07T07:55:00;7.95;;;5.32;;
16460;SDS011;8341;42.048;24.650;2023-12-07T07:57:28;5.70;;;4.88;;
16460;SDS011;8341;42.048;24.650;2023-12-07T07:59:55;6.63;;;5.20;;
16460;SDS011;8341;42.048;24.650;2023-12-07T08:02:22;11.10;;;7.82;;
16460;SDS011;8341;42.048;24.650;2023-12-07T08:04:49;16.73;;;11.93;;
16460;SDS011;8341;42.048;24.650;2023-12-07T08:07:17;14.88;;;10.48;;
16460;SDS011;8341;42.048;24.650;2023-12-07T08:09:45;13.38;;;10.57;;
16460;SDS011;8341;42.048;24.650;2023-12-07T08:12:12;14.75;;;11.38;;
16460;SDS011;8341;42.048;24.650;2023-12-07T08:14:39;15.93;;;11.63;;
16460;SDS011;8341;42.048;24.650;2023-12-07T08:17:08;12.60;;;9.98;;
16460;SDS011;8341;42.048;24.650;2023-12-07T08:19:35;18.33;;;12.77;;
16460;SDS011;8341;42.048;24.650;2023-12-07T08:22:03;17.27;;;12.50;;
16460;SDS011;8341;42.048;24.650;2023-12-07T08:24:30;14.68;;;11.20;;
16460;SDS011;8341;42.048;24.650;2023-12-07T08:26:58;15.02;;;10.77;;
16460;SDS011;8341;42.048;24.650;2023-12-07T08:29:25;13.82;;;10.20;;
16460;SDS011;8341;42.048;24.650;2023-12-07T08:31:51;13.25;;;10.45;;
16460;SDS011;8341;42.048;24.650;2023-12-07T08:34:18;12.55;;;9.48;;
16460;SDS011;8341;42.048;24.650;2023-12-07T08:36:45;10.50;;;8.35;;
16460;SDS011;8341;42.048;24.650;2023-12-07T08:39:12;10.02;;;7.63;;
16460;SDS011;8341;42.048;24.650;2023-12-07T08:41:39;13.50;;;8.30;;
16460;SDS011;8341;42.048;24.650;2023-12-07T08:44:08;11.88;;;8.20;;
16460;SDS011;8341;42.048;24.650;2023-12-07T08:46:35;11.82;;;8.60;;
16460;SDS011;8341;42.048;24.650;2023-12-07T08:49:02;15.55;;;9.73;;
16460;SDS011;8341;42.048;24.650;2023-12-07T08:51:29;13.45;;;9.50;;
16460;SDS011;8341;42.048;24.650;2023-12-07T08:53:56;16.70;;;11.25;;
16460;SDS011;8341;42.048;24.650;2023-12-07T08:56:23;15.00;;;11.07;;
16460;SDS011;8341;42.048;24.650;2023-12-07T08:58:50;21.15;;;14.73;;
16460;SDS011;8341;42.048;24.650;2023-12-07T09:01:19;23.83;;;15.45;;
16460;SDS011;8341;42.048;24.650;2023-12-07T09:03:46;24.05;;;15.82;;
16460;SDS011;8341;42.048;24.650;2023-12-07T09:06:13;25.05;;;16.40;;
16460;SDS011;8341;42.048;24.650;2023-12-07T09:08:40;25.08;;;16.38;;
16460;SDS011;8341;42.048;24.650;2023-12-07T09:11:06;26.88;;;18.45;;
16460;SDS011;8341;42.048;24.650;2023-12-07T09:13:34;22.90;;;14.95;;
16460;SDS011;8341;42.048;24.650;2023-12-07T09:16:00;24.73;;;15.48;;
16460;SDS011;8341;42.048;24.650;2023-12-07T09:18:29;31.05;;;17.95;;
16460;SDS011;8341;42.048;24.650;2023-12-07T09:20:56;25.17;;;17.17;;
16460;SDS011;8341;42.048;24.650;2023-12-07T09:23:23;25.60;;;16.52;;
16460;SDS011;8341;42.048;24.650;2023-12-07T09:25:50;24.85;;;17.25;;
16460;SDS011;8341;42.048;24.650;2023-12-07T09:28:17;27.42;;;16.52;;
16460;SDS011;8341;42.048;24.650;2023-12-07T09:30:44;29.33;;;18.20;;
16460;SDS011;8341;42.048;24.650;2023-12-07T09:33:12;25.27;;;16.90;;
16460;SDS011;8341;42.048;24.650;2023-12-07T09:35:40;24.80;;;17.42;;
16460;SDS011;8341;42.048;24.650;2023-12-07T09:38:07;23.42;;;16.15;;
16460;SDS011;8341;42.048;24.650;2023-12-07T09:40:35;23.02;;;15.45;;
16460;SDS011;8341;42.048;24.650;2023-12-07T09:43:02;25.55;;;16.92;;
16460;SDS011;8341;42.048;24.650;2023-12-07T09:45:29;24.88;;;18.55;;
16460;SDS011;8341;42.048;24.650;2023-12-07T09:47:56;28.98;;;18.65;;
16460;SDS011;8341;42.048;24.650;2023-12-07T09:50:24;23.33;;;16.20;;
16460;SDS011;8341;42.048;24.650;2023-12-07T09:52:54;27.42;;;15.30;;
16460;SDS011;8341;42.048;24.650;2023-12-07T09:55:23;21.67;;;15.13;;
16460;SDS011;8341;42.048;24.650;2023-12-07T09:57:50;38.45;;;27.90;;
16460;SDS011;8341;42.048;24.650;2023-12-07T10:00:19;23.40;;;16.35;;
16460;SDS011;8341;42.048;24.650;2023-12-07T10:02:46;24.70;;;16.40;;
16460;SDS011;8341;42.048;24.650;2023-12-07T10:05:14;11.90;;;8.75;;
16460;SDS011;8341;42.048;24.650;2023-12-07T10:07:43;20.58;;;15.18;;
16460;SDS011;8341;42.048;24.650;2023-12-07T10:10:13;23.15;;;15.98;;
16460;SDS011;8341;42.048;24.650;2023-12-07T10:12:51;20.33;;;14.00;;
16460;SDS011;8341;42.048;24.650;2023-12-07T10:15:19;21.25;;;15.55;;
16460;SDS011;8341;42.048;24.650;2023-12-07T10:17:48;33.40;;;24.08;;
16460;SDS011;8341;42.048;24.650;2023-12-07T10:20:16;31.85;;;21.95;;
16460;SDS011;8341;42.048;24.650;2023-12-07T10:22:44;22.02;;;17.05;;
16460;SDS011;8341;42.048;24.650;2023-12-07T10:25:13;25.00;;;16.63;;
16460;SDS011;8341;42.048;24.650;2023-12-07T10:27:41;21.30;;;14.63;;
16460;SDS011;8341;42.048;24.650;2023-12-07T10:30:09;30.20;;;23.13;;
16460;SDS011;8341;42.048;24.650;2023-12-07T10:32:37;10.88;;;9.25;;
16460;SDS011;8341;42.048;24.650;2023-12-07T10:35:08;21.98;;;14.98;;
16460;SDS011;8341;42.048;24.650;2023-12-07T10:37:35;16.15;;;11.63;;
16460;SDS011;8341;42.048;24.650;2023-12-07T10:40:04;22.38;;;16.08;;
16460;SDS011;8341;42.048;24.650;2023-12-07T10:42:34;23.63;;;17.17;;
16460;SDS011;8341;42.048;24.650;2023-12-07T10:45:05;26.10;;;18.52;;
16460;SDS011;8341;42.048;24.650;2023-12-07T10:47:35;26.77;;;18.58;;
16460;SDS011;8341;42.048;24.650;2023-12-07T10:50:05;27.63;;;19.02;;
16460;SDS011;8341;42.048;24.650;2023-12-07T10:52:36;28.25;;;19.70;;
16460;SDS011;8341;42.048;24.650;2023-12-07T10:55:07;20.40;;;14.70;;
16460;SDS011;8341;42.048;24.650;2023-12-07T10:57:38;30.10;;;19.33;;
16460;SDS011;8341;42.048;24.650;2023-12-07T11:00:06;25.02;;;17.70;;
16460;SDS011;8341;42.048;24.650;2023-12-07T11:02:34;26.20;;;18.52;;
16460;SDS011;8341;42.048;24.650;2023-12-07T11:05:03;27.60;;;18.80;;
16460;SDS011;8341;42.048;24.650;2023-12-07T11:07:32;25.15;;;16.48;;
16460;SDS011;8341;42.048;24.650;2023-12-07T11:10:10;24.98;;;16.48;;
16460;SDS011;8341;42.048;24.650;2023-12-07T11:12:45;26.92;;;18.08;;
16460;SDS011;8341;42.048;24.650;2023-12-07T11:15:16;19.00;;;12.57;;
16460;SDS011;8341;42.048;24.650;2023-12-07T11:17:50;14.77;;;10.35;;
16460;SDS011;8341;42.048;24.650;2023-12-07T11:20:18;23.70;;;16.83;;
16460;SDS011;8341;42.048;24.650;2023-12-07T11:22:46;21.35;;;15.65;;
16460;SDS011;8341;42.048;24.650;2023-12-07T11:25:15;23.42;;;15.73;;
16460;SDS011;8341;42.048;24.650;2023-12-07T11:27:45;17.48;;;12.48;;
16460;SDS011;8341;42.048;24.650;2023-12-07T11:30:16;16.48;;;11.85;;
16460;SDS011;8341;42.048;24.650;2023-12-07T11:32:43;15.77;;;11.77;;
16460;SDS011;8341;42.048;24.650;2023-12-07T11:35:13;12.68;;;9.80;;
16460;SDS011;8341;42.048;24.650;2023-12-07T11:38:00;12.95;;;8.80;;
16460;SDS011;8341;42.048;24.650;2023-12-07T11:40:32;10.13;;;6.55;;
16460;SDS011;8341;42.048;24.650;2023-12-07T11:43:02;9.63;;;6.45;;
16460;SDS011;8341;42.048;24.650;2023-12-07T11:45:40;12.00;;;9.93;;
16460;SDS011;8341;42.048;24.650;2023-12-07T11:48:10;8.73;;;6.68;;
16460;SDS011;8341;42.048;24.650;2023-12-07T11:53:27;14.10;;;9.77;;
16460;SDS011;8341;42.048;24.650;2023-12-07T11:55:55;9.73;;;7.05;;
16460;SDS011;8341;42.048;24.650;2023-12-07T11:58:25;9.13;;;6.93;;
16460;SDS011;8341;42.048;24.650;2023-12-07T12:00:52;10.35;;;7.63;;
16460;SDS011;8341;42.048;24.650;2023-12-07T12:03:21;11.32;;;9.00;;
16460;SDS011;8341;42.048;24.650;2023-12-07T12:05:48;15.35;;;9.38;;
16460;SDS011;8341;42.048;24.650;2023-12-07T12:08:15;12.95;;;8.98;;
16460;SDS011;8341;42.048;24.650;2023-12-07T12:10:44;10.70;;;8.02;;
16460;SDS011;8341;42.048;24.650;2023-12-07T12:13:12;9.80;;;7.53;;
16460;SDS011;8341;42.048;24.650;2023-12-07T12:15:41;11.35;;;7.88;;
16460;SDS011;8341;42.048;24.650;2023-12-07T12:18:08;10.10;;;7.45;;
16460;SDS011;8341;42.048;24.650;2023-12-07T12:20:35;9.52;;;6.93;;
16460;SDS011;8341;42.048;24.650;2023-12-07T12:23:02;9.10;;;6.60;;
16460;SDS011;8341;42.048;24.650;2023-12-07T12:25:30;10.40;;;7.63;;
16460;SDS011;8341;42.048;24.650;2023-12-07T12:27:58;9.15;;;8.05;;
16460;SDS011;8341;42.048;24.650;2023-12-07T12:30:28;10.77;;;7.88;;
16460;SDS011;8341;42.048;24.650;2023-12-07T12:32:57;11.60;;;7.88;;
16460;SDS011;8341;42.048;24.650;2023-12-07T12:35:25;11.63;;;7.35;;
16460;SDS011;8341;42.048;24.650;2023-12-07T12:37:52;12.15;;;7.85;;
16460;SDS011;8341;42.048;24.650;2023-12-07T12:40:21;9.82;;;7.60;;
16460;SDS011;8341;42.048;24.650;2023-12-07T12:42:49;11.55;;;8.45;;
16460;SDS011;8341;42.048;24.650;2023-12-07T12:45:18;11.00;;;7.72;;
16460;SDS011;8341;42.048;24.650;2023-12-07T12:47:46;9.63;;;7.35;;
16460;SDS011;8341;42.048;24.650;2023-12-07T12:53:02;13.60;;;9.98;;
16460;SDS011;8341;42.048;24.650;2023-12-07T12:55:30;12.25;;;9.18;;
16460;SDS011;8341;42.048;24.650;2023-12-07T12:57:58;9.77;;;7.57;;
16460;SDS011;8341;42.048;24.650;2023-12-07T13:00:25;10.00;;;7.72;;
16460;SDS011;8341;42.048;24.650;2023-12-07T13:02:52;8.73;;;7.00;;
16460;SDS011;8341;42.048;24.650;2023-12-07T13:05:19;14.57;;;9.13;;
16460;SDS011;8341;42.048;24.650;2023-12-07T13:07:48;10.48;;;7.57;;
16460;SDS011;8341;42.048;24.650;2023-12-07T13:10:15;13.05;;;9.93;;
16460;SDS011;8341;42.048;24.650;2023-12-07T13:12:42;12.70;;;9.32;;
16460;SDS011;8341;42.048;24.650;2023-12-07T13:15:10;10.13;;;7.50;;
16460;SDS011;8341;42.048;24.650;2023-12-07T13:17:38;10.18;;;7.55;;
16460;SDS011;8341;42.048;24.650;2023-12-07T13:20:06;10.43;;;7.30;;
16460;SDS011;8341;42.048;24.650;2023-12-07T13:22:35;10.45;;;7.65;;
16460;SDS011;8341;42.048;24.650;2023-12-07T13:25:05;10.05;;;7.40;;
16460;SDS011;8341;42.048;24.650;2023-12-07T13:27:33;11.43;;;7.75;;
16460;SDS011;8341;42.048;24.650;2023-12-07T13:30:00;12.40;;;7.93;;
16460;SDS011;8341;42.048;24.650;2023-12-07T13:32:30;14.02;;;10.60;;
16460;SDS011;8341;42.048;24.650;2023-12-07T13:34:57;11.00;;;9.27;;
16460;SDS011;8341;42.048;24.650;2023-12-07T13:37:24;12.60;;;8.63;;
16460;SDS011;8341;42.048;24.650;2023-12-07T13:39:51;9.10;;;7.20;;
16460;SDS011;8341;42.048;24.650;2023-12-07T13:42:24;11.32;;;7.00;;
16460;SDS011;8341;42.048;24.650;2023-12-07T13:44:53;9.60;;;7.00;;
16460;SDS011;8341;42.048;24.650;2023-12-07T13:47:22;10.15;;;7.07;;
16460;SDS011;8341;42.048;24.650;2023-12-07T13:49:53;10.77;;;7.50;;
16460;SDS011;8341;42.048;24.650;2023-12-07T13:52:21;10.35;;;7.13;;
16460;SDS011;8341;42.048;24.650;2023-12-07T13:54:48;8.40;;;6.68;;
16460;SDS011;8341;42.048;24.650;2023-12-07T13:57:15;9.52;;;7.05;;
16460;SDS011;8341;42.048;24.650;2023-12-07T13:59:43;8.65;;;7.10;;
16460;SDS011;8341;42.048;24.650;2023-12-07T14:02:11;9.00;;;7.55;;
16460;SDS011;8341;42.048;24.650;2023-12-07T14:04:38;12.32;;;9.38;;
16460;SDS011;8341;42.048;24.650;2023-12-07T14:07:08;12.43;;;8.30;;
16460;SDS011;8341;42.048;24.650;2023-12-07T14:09:37;9.65;;;7.55;;
16460;SDS011;8341;42.048;24.650;2023-12-07T14:12:04;12.15;;;8.50;;
16460;SDS011;8341;42.048;24.650;2023-12-07T14:14:36;11.30;;;9.00;;
16460;SDS011;8341;42.048;24.650;2023-12-07T14:17:04;21.30;;;13.98;;
16460;SDS011;8341;42.048;24.650;2023-12-07T14:19:31;19.70;;;11.65;;
16460;SDS011;8341;42.048;24.650;2023-12-07T14:21:58;31.25;;;17.35;;
16460;SDS011;8341;42.048;24.650;2023-12-07T14:24:25;33.55;;;19.98;;
16460;SDS011;8341;42.048;24.650;2023-12-07T14:26:53;18.30;;;12.18;;
16460;SDS011;8341;42.048;24.650;2023-12-07T14:29:20;14.48;;;10.05;;
16460;SDS011;8341;42.048;24.650;2023-12-07T14:31:47;25.00;;;16.55;;
16460;SDS011;8341;42.048;24.650;2023-12-07T14:34:16;17.08;;;13.00;;
16460;SDS011;8341;42.048;24.650;2023-12-07T14:36:44;18.20;;;12.82;;
16460;SDS011;8341;42.048;24.650;2023-12-07T14:39:11;30.15;;;19.42;;
16460;SDS011;8341;42.048;24.650;2023-12-07T14:41:42;20.42;;;15.50;;
16460;SDS011;8341;42.048;24.650;2023-12-07T14:44:12;25.92;;;19.13;;
16460;SDS011;8341;42.048;24.650;2023-12-07T14:46:40;28.35;;;19.35;;
16460;SDS011;8341;42.048;24.650;2023-12-07T14:49:09;23.98;;;18.17;;